sensor_id;sensor_type;location;lat;lon;timestamp;temperature;humidity
23633;DHT22;11993;48.748;9.166;2022-09-21T00:01:18;10.30;73.00
23633;DHT22;11993;48.748;9.166;2022-09-21T00:03:43;10.20;72.90
23633;DHT22;11993;48.748;9.166;2022-09-21T00:06:13;10.20;73.20
23633;DHT22;11993;48.748;9.166;2022-09-21T00:08:39;10.20;73.40
23633;DHT22;11993;48.748;9.166;2022-09-21T00:11:04;10.20;73.00
23633;DHT22;11993;48.748;9.166;2022-09-21T00:13:32;10.10;72.90
23633;DHT22;11993;48.748;9.166;2022-09-21T00:15:58;10.20;73.00
23633;DHT22;11993;48.748;9.166;2022-09-21T00:18:24;10.10;73.20
23633;DHT22;11993;48.748;9.166;2022-09-21T00:20:49;10.00;73.60
23633;DHT22;11993;48.748;9.166;2022-09-21T00:23:17;10.10;73.40
23633;DHT22;11993;48.748;9.166;2022-09-21T00:25:42;9.90;73.80
23633;DHT22;11993;48.748;9.166;2022-09-21T00:28:08;9.90;74.10
23633;DHT22;11993;48.748;9.166;2022-09-21T00:30:34;10.10;73.40
23633;DHT22;11993;48.748;9.166;2022-09-21T00:32:59;9.90;73.50
23633;DHT22;11993;48.748;9.166;2022-09-21T00:35:25;9.90;73.80
23633;DHT22;11993;48.748;9.166;2022-09-21T00:37:50;9.90;73.70
23633;DHT22;11993;48.748;9.166;2022-09-21T00:40:16;9.90;73.60
23633;DHT22;11993;48.748;9.166;2022-09-21T00:42:41;9.90;73.60
23633;DHT22;11993;48.748;9.166;2022-09-21T00:45:11;9.90;73.80
23633;DHT22;11993;48.748;9.166;2022-09-21T00:47:49;9.80;73.90
23633;DHT22;11993;48.748;9.166;2022-09-21T00:50:21;9.90;74.00
23633;DHT22;11993;48.748;9.166;2022-09-21T00:52:55;9.80;74.00
23633;DHT22;11993;48.748;9.166;2022-09-21T00:55:28;9.90;74.10
23633;DHT22;11993;48.748;9.166;2022-09-21T00:58:00;9.90;73.80
23633;DHT22;11993;48.748;9.166;2022-09-21T01:00:26;9.90;73.90
23633;DHT22;11993;48.748;9.166;2022-09-21T01:02:52;9.90;73.90
23633;DHT22;11993;48.748;9.166;2022-09-21T01:05:26;9.90;74.00
23633;DHT22;11993;48.748;9.166;2022-09-21T01:07:51;9.90;73.80
23633;DHT22;11993;48.748;9.166;2022-09-21T01:10:17;9.90;73.90
23633;DHT22;11993;48.748;9.166;2022-09-21T01:13:16;9.90;73.90
23633;DHT22;11993;48.748;9.166;2022-09-21T01:15:58;9.90;74.00
23633;DHT22;11993;48.748;9.166;2022-09-21T01:18:45;9.80;74.30
23633;DHT22;11993;48.748;9.166;2022-09-21T01:21:21;9.80;74.20
23633;DHT22;11993;48.748;9.166;2022-09-21T01:23:59;9.80;74.30
23633;DHT22;11993;48.748;9.166;2022-09-21T01:27:00;9.80;74.30
23633;DHT22;11993;48.748;9.166;2022-09-21T01:29:32;9.90;74.10
23633;DHT22;11993;48.748;9.166;2022-09-21T01:32:11;9.80;74.10
23633;DHT22;11993;48.748;9.166;2022-09-21T01:34:57;9.80;74.10
23633;DHT22;11993;48.748;9.166;2022-09-21T01:37:28;9.80;74.40
23633;DHT22;11993;48.748;9.166;2022-09-21T01:40:00;9.70;74.50
23633;DHT22;11993;48.748;9.166;2022-09-21T01:42:29;9.80;74.50
23633;DHT22;11993;48.748;9.166;2022-09-21T01:44:58;9.80;74.60
23633;DHT22;11993;48.748;9.166;2022-09-21T01:47:25;9.80;74.60
23633;DHT22;11993;48.748;9.166;2022-09-21T01:49:54;9.80;74.50
23633;DHT22;11993;48.748;9.166;2022-09-21T01:52:35;9.70;74.50
23633;DHT22;11993;48.748;9.166;2022-09-21T01:55:18;9.70;74.80
23633;DHT22;11993;48.748;9.166;2022-09-21T01:57:56;9.70;74.70
23633;DHT22;11993;48.748;9.166;2022-09-21T02:00:23;9.60;75.10
23633;DHT22;11993;48.748;9.166;2022-09-21T02:03:28;9.60;75.30
23633;DHT22;11993;48.748;9.166;2022-09-21T02:05:56;9.60;75.30
23633;DHT22;11993;48.748;9.166;2022-09-21T02:08:23;9.60;75.40
23633;DHT22;11993;48.748;9.166;2022-09-21T02:10:51;9.60;75.60
23633;DHT22;11993;48.748;9.166;2022-09-21T02:13:20;9.60;75.70
23633;DHT22;11993;48.748;9.166;2022-09-21T02:19:13;9.50;76.20
23633;DHT22;11993;48.748;9.166;2022-09-21T02:24:32;9.40;76.40
23633;DHT22;11993;48.748;9.166;2022-09-21T02:27:17;9.40;76.40
23633;DHT22;11993;48.748;9.166;2022-09-21T02:34:57;9.30;76.50
23633;DHT22;11993;48.748;9.166;2022-09-21T02:40:21;9.20;76.60
23633;DHT22;11993;48.748;9.166;2022-09-21T02:42:53;9.20;77.00
23633;DHT22;11993;48.748;9.166;2022-09-21T02:45:30;9.20;77.00
23633;DHT22;11993;48.748;9.166;2022-09-21T02:48:13;9.30;76.90
23633;DHT22;11993;48.748;9.166;2022-09-21T02:50:50;9.20;76.70
23633;DHT22;11993;48.748;9.166;2022-09-21T02:53:24;9.20;76.80
23633;DHT22;11993;48.748;9.166;2022-09-21T02:55:52;9.20;76.90
23633;DHT22;11993;48.748;9.166;2022-09-21T02:58:19;9.20;76.90
23633;DHT22;11993;48.748;9.166;2022-09-21T03:00:46;9.20;76.90
23633;DHT22;11993;48.748;9.166;2022-09-21T03:03:20;9.20;76.80
23633;DHT22;11993;48.748;9.166;2022-09-21T03:05:48;9.20;76.80
23633;DHT22;11993;48.748;9.166;2022-09-21T03:08:15;9.20;76.70
23633;DHT22;11993;48.748;9.166;2022-09-21T03:10:41;9.20;76.80
23633;DHT22;11993;48.748;9.166;2022-09-21T03:13:07;9.20;76.90
23633;DHT22;11993;48.748;9.166;2022-09-21T03:15:37;9.10;77.20
23633;DHT22;11993;48.748;9.166;2022-09-21T03:18:04;8.80;78.00
23633;DHT22;11993;48.748;9.166;2022-09-21T03:20:32;8.70;78.60
23633;DHT22;11993;48.748;9.166;2022-09-21T03:22:58;8.60;78.40
23633;DHT22;11993;48.748;9.166;2022-09-21T03:25:24;8.50;78.40
23633;DHT22;11993;48.748;9.166;2022-09-21T03:27:50;8.40;79.20
23633;DHT22;11993;48.748;9.166;2022-09-21T03:30:21;8.30;79.60
23633;DHT22;11993;48.748;9.166;2022-09-21T03:32:53;8.20;79.80
23633;DHT22;11993;48.748;9.166;2022-09-21T03:35:21;8.20;79.80
23633;DHT22;11993;48.748;9.166;2022-09-21T03:37:48;8.20;79.80
23633;DHT22;11993;48.748;9.166;2022-09-21T03:40:15;8.10;79.20
23633;DHT22;11993;48.748;9.166;2022-09-21T03:42:41;8.00;79.60
23633;DHT22;11993;48.748;9.166;2022-09-21T03:45:08;8.00;79.90
23633;DHT22;11993;48.748;9.166;2022-09-21T03:47:35;8.00;80.10
23633;DHT22;11993;48.748;9.166;2022-09-21T03:50:01;7.80;80.30
23633;DHT22;11993;48.748;9.166;2022-09-21T03:52:26;7.80;80.00
23633;DHT22;11993;48.748;9.166;2022-09-21T03:54:52;7.70;80.40
23633;DHT22;11993;48.748;9.166;2022-09-21T03:57:19;7.60;80.70
23633;DHT22;11993;48.748;9.166;2022-09-21T03:59:44;7.60;80.70
23633;DHT22;11993;48.748;9.166;2022-09-21T04:02:10;7.60;80.70
23633;DHT22;11993;48.748;9.166;2022-09-21T04:04:35;7.60;81.00
23633;DHT22;11993;48.748;9.166;2022-09-21T04:07:01;7.60;81.20
23633;DHT22;11993;48.748;9.166;2022-09-21T04:09:27;7.60;81.10
23633;DHT22;11993;48.748;9.166;2022-09-21T04:11:52;7.70;80.90
23633;DHT22;11993;48.748;9.166;2022-09-21T04:14:18;7.60;80.90
23633;DHT22;11993;48.748;9.166;2022-09-21T04:16:44;7.60;81.00
23633;DHT22;11993;48.748;9.166;2022-09-21T04:19:09;7.70;80.90
23633;DHT22;11993;48.748;9.166;2022-09-21T04:21:35;7.80;80.70
23633;DHT22;11993;48.748;9.166;2022-09-21T04:24:00;7.80;80.30
23633;DHT22;11993;48.748;9.166;2022-09-21T04:26:32;8.00;79.80
23633;DHT22;11993;48.748;9.166;2022-09-21T04:28:58;8.10;78.80
23633;DHT22;11993;48.748;9.166;2022-09-21T04:31:25;8.20;78.70
23633;DHT22;11993;48.748;9.166;2022-09-21T04:33:53;8.20;78.70
23633;DHT22;11993;48.748;9.166;2022-09-21T04:36:20;8.30;78.60
23633;DHT22;11993;48.748;9.166;2022-09-21T04:38:46;8.20;78.50
23633;DHT22;11993;48.748;9.166;2022-09-21T04:41:12;8.20;78.50
23633;DHT22;11993;48.748;9.166;2022-09-21T04:43:41;8.20;78.70
23633;DHT22;11993;48.748;9.166;2022-09-21T04:46:09;8.20;78.70
23633;DHT22;11993;48.748;9.166;2022-09-21T04:48:35;8.20;78.40
23633;DHT22;11993;48.748;9.166;2022-09-21T04:51:02;8.20;78.70
23633;DHT22;11993;48.748;9.166;2022-09-21T04:53:28;8.10;79.20
23633;DHT22;11993;48.748;9.166;2022-09-21T04:55:54;8.00;79.60
23633;DHT22;11993;48.748;9.166;2022-09-21T04:58:23;8.00;79.50
23633;DHT22;11993;48.748;9.166;2022-09-21T05:00:50;8.00;78.90
23633;DHT22;11993;48.748;9.166;2022-09-21T05:03:17;7.90;78.70
23633;DHT22;11993;48.748;9.166;2022-09-21T05:05:51;8.00;79.20
23633;DHT22;11993;48.748;9.166;2022-09-21T05:08:17;7.90;78.80
23633;DHT22;11993;48.748;9.166;2022-09-21T05:11:06;7.80;79.00
23633;DHT22;11993;48.748;9.166;2022-09-21T05:13:32;7.60;79.30
23633;DHT22;11993;48.748;9.166;2022-09-21T05:15:58;7.60;79.80
23633;DHT22;11993;48.748;9.166;2022-09-21T05:18:23;7.60;79.70
23633;DHT22;11993;48.748;9.166;2022-09-21T05:20:59;7.50;80.20
23633;DHT22;11993;48.748;9.166;2022-09-21T05:23:26;7.50;79.70
23633;DHT22;11993;48.748;9.166;2022-09-21T05:25:54;7.30;80.30
23633;DHT22;11993;48.748;9.166;2022-09-21T05:28:20;7.30;80.60
23633;DHT22;11993;48.748;9.166;2022-09-21T05:31:03;7.40;80.90
23633;DHT22;11993;48.748;9.166;2022-09-21T05:33:29;7.20;80.90
23633;DHT22;11993;48.748;9.166;2022-09-21T05:38:52;7.30;81.30
23633;DHT22;11993;48.748;9.166;2022-09-21T05:41:17;7.40;80.80
23633;DHT22;11993;48.748;9.166;2022-09-21T05:43:43;7.60;80.50
23633;DHT22;11993;48.748;9.166;2022-09-21T05:46:24;7.60;80.40
23633;DHT22;11993;48.748;9.166;2022-09-21T05:48:59;7.70;80.30
23633;DHT22;11993;48.748;9.166;2022-09-21T05:56:48;8.20;79.40
23633;DHT22;11993;48.748;9.166;2022-09-21T06:01:59;8.40;78.70
23633;DHT22;11993;48.748;9.166;2022-09-21T06:04:29;8.60;78.30
23633;DHT22;11993;48.748;9.166;2022-09-21T06:06:54;8.60;77.60
23633;DHT22;11993;48.748;9.166;2022-09-21T06:09:21;8.70;77.60
23633;DHT22;11993;48.748;9.166;2022-09-21T06:11:46;8.90;77.30
23633;DHT22;11993;48.748;9.166;2022-09-21T06:14:12;9.10;76.50
23633;DHT22;11993;48.748;9.166;2022-09-21T06:16:39;9.20;75.70
23633;DHT22;11993;48.748;9.166;2022-09-21T06:19:05;9.30;75.70
23633;DHT22;11993;48.748;9.166;2022-09-21T06:21:31;9.40;75.60
23633;DHT22;11993;48.748;9.166;2022-09-21T06:23:56;9.50;74.90
23633;DHT22;11993;48.748;9.166;2022-09-21T06:26:22;9.50;75.10
23633;DHT22;11993;48.748;9.166;2022-09-21T06:28:47;9.60;75.40
23633;DHT22;11993;48.748;9.166;2022-09-21T06:31:13;9.70;74.40
23633;DHT22;11993;48.748;9.166;2022-09-21T06:33:38;10.00;74.40
23633;DHT22;11993;48.748;9.166;2022-09-21T06:36:04;10.20;73.90
23633;DHT22;11993;48.748;9.166;2022-09-21T06:38:29;10.30;73.30
23633;DHT22;11993;48.748;9.166;2022-09-21T06:41:00;10.40;73.50
23633;DHT22;11993;48.748;9.166;2022-09-21T06:43:27;10.70;72.90
23633;DHT22;11993;48.748;9.166;2022-09-21T06:45:54;10.90;72.40
23633;DHT22;11993;48.748;9.166;2022-09-21T06:48:20;10.90;71.90
23633;DHT22;11993;48.748;9.166;2022-09-21T06:50:46;11.10;70.90
23633;DHT22;11993;48.748;9.166;2022-09-21T06:53:11;10.90;70.50
23633;DHT22;11993;48.748;9.166;2022-09-21T06:55:38;10.80;70.80
23633;DHT22;11993;48.748;9.166;2022-09-21T06:58:04;10.90;70.80
23633;DHT22;11993;48.748;9.166;2022-09-21T07:00:30;10.80;70.90
23633;DHT22;11993;48.748;9.166;2022-09-21T07:02:56;10.90;70.70
23633;DHT22;11993;48.748;9.166;2022-09-21T07:05:21;10.80;70.60
23633;DHT22;11993;48.748;9.166;2022-09-21T07:07:47;10.90;70.60
23633;DHT22;11993;48.748;9.166;2022-09-21T07:10:12;10.90;71.00
23633;DHT22;11993;48.748;9.166;2022-09-21T07:12:38;11.00;70.60
23633;DHT22;11993;48.748;9.166;2022-09-21T07:15:05;11.10;70.40
23633;DHT22;11993;48.748;9.166;2022-09-21T07:17:35;11.40;70.30
23633;DHT22;11993;48.748;9.166;2022-09-21T07:20:01;11.60;69.80
23633;DHT22;11993;48.748;9.166;2022-09-21T07:22:28;11.50;69.70
23633;DHT22;11993;48.748;9.166;2022-09-21T07:24:54;11.80;69.80
23633;DHT22;11993;48.748;9.166;2022-09-21T07:27:20;12.20;69.20
23633;DHT22;11993;48.748;9.166;2022-09-21T07:29:45;12.40;68.70
23633;DHT22;11993;48.748;9.166;2022-09-21T07:32:12;12.60;67.20
23633;DHT22;11993;48.748;9.166;2022-09-21T07:34:37;12.70;67.70
23633;DHT22;11993;48.748;9.166;2022-09-21T07:37:03;12.70;67.40
23633;DHT22;11993;48.748;9.166;2022-09-21T07:39:29;12.90;66.20
23633;DHT22;11993;48.748;9.166;2022-09-21T07:41:55;12.80;65.50
23633;DHT22;11993;48.748;9.166;2022-09-21T07:44:23;13.00;65.50
23633;DHT22;11993;48.748;9.166;2022-09-21T07:46:49;13.10;65.40
23633;DHT22;11993;48.748;9.166;2022-09-21T07:49:15;13.30;64.80
23633;DHT22;11993;48.748;9.166;2022-09-21T07:51:40;13.60;63.90
23633;DHT22;11993;48.748;9.166;2022-09-21T07:54:08;13.60;63.20
23633;DHT22;11993;48.748;9.166;2022-09-21T07:56:36;13.70;63.70
23633;DHT22;11993;48.748;9.166;2022-09-21T07:59:02;13.50;63.10
23633;DHT22;11993;48.748;9.166;2022-09-21T08:01:36;13.40;63.70
23633;DHT22;11993;48.748;9.166;2022-09-21T08:04:03;13.60;63.90
23633;DHT22;11993;48.748;9.166;2022-09-21T08:06:30;13.80;62.80
23633;DHT22;11993;48.748;9.166;2022-09-21T08:08:58;14.10;62.70
23633;DHT22;11993;48.748;9.166;2022-09-21T08:11:26;14.20;62.80
23633;DHT22;11993;48.748;9.166;2022-09-21T08:13:53;14.20;61.80
23633;DHT22;11993;48.748;9.166;2022-09-21T08:16:19;14.30;61.80
23633;DHT22;11993;48.748;9.166;2022-09-21T08:18:45;14.70;61.70
23633;DHT22;11993;48.748;9.166;2022-09-21T08:21:10;15.00;59.90
23633;DHT22;11993;48.748;9.166;2022-09-21T08:23:36;15.00;59.20
23633;DHT22;11993;48.748;9.166;2022-09-21T08:26:05;15.10;59.10
23633;DHT22;11993;48.748;9.166;2022-09-21T08:28:32;15.20;59.70
23633;DHT22;11993;48.748;9.166;2022-09-21T08:31:02;15.50;59.30
23633;DHT22;11993;48.748;9.166;2022-09-21T08:33:28;15.60;58.20
23633;DHT22;11993;48.748;9.166;2022-09-21T08:35:55;15.60;58.20
23633;DHT22;11993;48.748;9.166;2022-09-21T08:38:21;15.90;58.70
23633;DHT22;11993;48.748;9.166;2022-09-21T08:40:48;16.00;58.70
23633;DHT22;11993;48.748;9.166;2022-09-21T08:43:21;16.20;57.50
23633;DHT22;11993;48.748;9.166;2022-09-21T08:45:52;16.10;56.10
23633;DHT22;11993;48.748;9.166;2022-09-21T08:48:24;16.10;55.90
23633;DHT22;11993;48.748;9.166;2022-09-21T08:50:56;15.90;54.70
23633;DHT22;11993;48.748;9.166;2022-09-21T08:53:44;15.90;53.70
23633;DHT22;11993;48.748;9.166;2022-09-21T08:56:15;16.00;54.90
23633;DHT22;11993;48.748;9.166;2022-09-21T08:58:41;15.90;54.80
23633;DHT22;11993;48.748;9.166;2022-09-21T09:12:13;15.90;55.10
23633;DHT22;11993;48.748;9.166;2022-09-21T09:19:49;16.10;52.90
23633;DHT22;11993;48.748;9.166;2022-09-21T09:22:25;16.40;52.90
23633;DHT22;11993;48.748;9.166;2022-09-21T09:24:52;16.60;52.60
23633;DHT22;11993;48.748;9.166;2022-09-21T09:27:40;16.50;53.40
23633;DHT22;11993;48.748;9.166;2022-09-21T09:30:17;16.60;51.30
23633;DHT22;11993;48.748;9.166;2022-09-21T09:32:59;16.70;52.20
23633;DHT22;11993;48.748;9.166;2022-09-21T09:35:34;17.30;51.00
23633;DHT22;11993;48.748;9.166;2022-09-21T09:38:10;17.40;52.30
23633;DHT22;11993;48.748;9.166;2022-09-21T09:44:16;17.20;50.20
23633;DHT22;11993;48.748;9.166;2022-09-21T09:49:56;16.90;50.40
23633;DHT22;11993;48.748;9.166;2022-09-21T09:52:23;17.10;50.00
23633;DHT22;11993;48.748;9.166;2022-09-21T09:54:49;17.60;49.90
23633;DHT22;11993;48.748;9.166;2022-09-21T09:57:23;17.50;49.00
23633;DHT22;11993;48.748;9.166;2022-09-21T09:59:53;17.90;50.10
23633;DHT22;11993;48.748;9.166;2022-09-21T10:02:22;18.30;50.30
23633;DHT22;11993;48.748;9.166;2022-09-21T10:04:59;18.30;48.90
23633;DHT22;11993;48.748;9.166;2022-09-21T10:07:38;18.70;46.20
23633;DHT22;11993;48.748;9.166;2022-09-21T10:13:05;19.60;45.40
23633;DHT22;11993;48.748;9.166;2022-09-21T10:15:31;19.80;46.60
23633;DHT22;11993;48.748;9.166;2022-09-21T10:18:05;19.50;47.60
23633;DHT22;11993;48.748;9.166;2022-09-21T10:20:31;19.10;46.60
23633;DHT22;11993;48.748;9.166;2022-09-21T10:22:58;19.20;45.40
23633;DHT22;11993;48.748;9.166;2022-09-21T10:25:25;18.80;46.10
23633;DHT22;11993;48.748;9.166;2022-09-21T10:27:51;18.80;46.40
23633;DHT22;11993;48.748;9.166;2022-09-21T10:30:36;19.10;44.90
23633;DHT22;11993;48.748;9.166;2022-09-21T10:33:19;19.60;44.80
23633;DHT22;11993;48.748;9.166;2022-09-21T10:35:51;19.70;44.10
23633;DHT22;11993;48.748;9.166;2022-09-21T10:38:19;19.80;43.80
23633;DHT22;11993;48.748;9.166;2022-09-21T10:40:45;19.60;45.10
23633;DHT22;11993;48.748;9.166;2022-09-21T10:43:34;19.30;43.70
23633;DHT22;11993;48.748;9.166;2022-09-21T10:46:00;19.70;44.00
23633;DHT22;11993;48.748;9.166;2022-09-21T10:48:27;20.30;44.80
23633;DHT22;11993;48.748;9.166;2022-09-21T10:50:54;20.30;43.10
23633;DHT22;11993;48.748;9.166;2022-09-21T10:53:32;20.30;42.80
23633;DHT22;11993;48.748;9.166;2022-09-21T10:58:27;20.40;42.90
23633;DHT22;11993;48.748;9.166;2022-09-21T11:00:54;20.50;41.60
23633;DHT22;11993;48.748;9.166;2022-09-21T11:03:38;20.50;41.10
23633;DHT22;11993;48.748;9.166;2022-09-21T11:06:28;21.30;40.50
23633;DHT22;11993;48.748;9.166;2022-09-21T11:09:02;20.60;40.90
23633;DHT22;11993;48.748;9.166;2022-09-21T11:17:35;20.10;41.60
23633;DHT22;11993;48.748;9.166;2022-09-21T11:23:03;21.50;40.00
23633;DHT22;11993;48.748;9.166;2022-09-21T11:25:42;21.40;39.50
23633;DHT22;11993;48.748;9.166;2022-09-21T11:28:20;21.60;39.50
23633;DHT22;11993;48.748;9.166;2022-09-21T11:33:40;20.80;39.50
23633;DHT22;11993;48.748;9.166;2022-09-21T11:42:08;21.20;38.10
23633;DHT22;11993;48.748;9.166;2022-09-21T11:44:53;21.50;39.10
23633;DHT22;11993;48.748;9.166;2022-09-21T11:50:11;21.80;39.60
23633;DHT22;11993;48.748;9.166;2022-09-21T11:55:53;21.40;39.00
23633;DHT22;11993;48.748;9.166;2022-09-21T11:59:00;21.30;40.70
23633;DHT22;11993;48.748;9.166;2022-09-21T12:09:52;20.20;42.40
23633;DHT22;11993;48.748;9.166;2022-09-21T12:12:28;21.00;42.70
23633;DHT22;11993;48.748;9.166;2022-09-21T12:15:22;21.20;41.30
23633;DHT22;11993;48.748;9.166;2022-09-21T12:18:03;21.40;40.20
23633;DHT22;11993;48.748;9.166;2022-09-21T12:21:17;20.90;40.80
23633;DHT22;11993;48.748;9.166;2022-09-21T12:26:19;19.30;42.20
23633;DHT22;11993;48.748;9.166;2022-09-21T12:34:20;18.60;44.50
23633;DHT22;11993;48.748;9.166;2022-09-21T12:36:59;18.30;45.20
23633;DHT22;11993;48.748;9.166;2022-09-21T12:39:34;18.80;44.70
23633;DHT22;11993;48.748;9.166;2022-09-21T12:42:02;18.70;43.10
23633;DHT22;11993;48.748;9.166;2022-09-21T12:44:46;18.60;42.40
23633;DHT22;11993;48.748;9.166;2022-09-21T12:50:34;18.10;43.60
23633;DHT22;11993;48.748;9.166;2022-09-21T12:53:02;18.20;44.40
23633;DHT22;11993;48.748;9.166;2022-09-21T12:55:39;18.00;44.50
23633;DHT22;11993;48.748;9.166;2022-09-21T13:01:29;17.50;45.10
23633;DHT22;11993;48.748;9.166;2022-09-21T13:04:26;17.10;45.20
23633;DHT22;11993;48.748;9.166;2022-09-21T13:09:45;18.90;43.00
23633;DHT22;11993;48.748;9.166;2022-09-21T13:14:46;20.10;39.70
23633;DHT22;11993;48.748;9.166;2022-09-21T13:17:24;19.60;40.30
23633;DHT22;11993;48.748;9.166;2022-09-21T13:19:57;19.40;40.60
23633;DHT22;11993;48.748;9.166;2022-09-21T13:22:25;18.90;41.00
23633;DHT22;11993;48.748;9.166;2022-09-21T13:25:04;18.50;41.70
23633;DHT22;11993;48.748;9.166;2022-09-21T13:30:45;17.90;43.70
23633;DHT22;11993;48.748;9.166;2022-09-21T13:54:16;16.80;46.60
23633;DHT22;11993;48.748;9.166;2022-09-21T13:56:44;16.80;47.40
23633;DHT22;11993;48.748;9.166;2022-09-21T13:59:21;16.80;46.20
23633;DHT22;11993;48.748;9.166;2022-09-21T14:01:49;17.00;46.10
23633;DHT22;11993;48.748;9.166;2022-09-21T14:04:30;16.80;46.40
23633;DHT22;11993;48.748;9.166;2022-09-21T14:07:02;16.60;47.00
23633;DHT22;11993;48.748;9.166;2022-09-21T14:09:33;16.70;46.60
23633;DHT22;11993;48.748;9.166;2022-09-21T14:12:03;16.60;46.10
23633;DHT22;11993;48.748;9.166;2022-09-21T14:14:36;16.70;45.90
23633;DHT22;11993;48.748;9.166;2022-09-21T14:17:04;16.60;45.60
23633;DHT22;11993;48.748;9.166;2022-09-21T14:29:57;16.90;43.70
23633;DHT22;11993;48.748;9.166;2022-09-21T14:32:27;17.00;43.90
23633;DHT22;11993;48.748;9.166;2022-09-21T14:34:58;17.50;44.10
23633;DHT22;11993;48.748;9.166;2022-09-21T14:37:36;17.90;42.00
23633;DHT22;11993;48.748;9.166;2022-09-21T14:40:15;18.30;41.00
23633;DHT22;11993;48.748;9.166;2022-09-21T14:42:42;18.60;40.80
23633;DHT22;11993;48.748;9.166;2022-09-21T14:45:15;19.20;40.30
23633;DHT22;11993;48.748;9.166;2022-09-21T14:47:47;19.20;40.40
23633;DHT22;11993;48.748;9.166;2022-09-21T14:50:33;18.80;39.50
23633;DHT22;11993;48.748;9.166;2022-09-21T14:56:20;17.60;41.90
23633;DHT22;11993;48.748;9.166;2022-09-21T14:59:12;17.30;43.50
23633;DHT22;11993;48.748;9.166;2022-09-21T15:04:49;17.10;43.70
23633;DHT22;11993;48.748;9.166;2022-09-21T15:13:58;17.70;42.10
23633;DHT22;11993;48.748;9.166;2022-09-21T15:16:28;18.20;42.50
23633;DHT22;11993;48.748;9.166;2022-09-21T15:24:29;18.40;40.00
23633;DHT22;11993;48.748;9.166;2022-09-21T15:27:13;18.60;38.70
23633;DHT22;11993;48.748;9.166;2022-09-21T15:29:42;18.40;38.80
23633;DHT22;11993;48.748;9.166;2022-09-21T15:34:47;17.80;40.20
23633;DHT22;11993;48.748;9.166;2022-09-21T15:37:15;17.80;40.60
23633;DHT22;11993;48.748;9.166;2022-09-21T15:39:43;17.40;41.70
23633;DHT22;11993;48.748;9.166;2022-09-21T15:44:36;16.60;43.50
23633;DHT22;11993;48.748;9.166;2022-09-21T15:47:07;16.50;43.80
23633;DHT22;11993;48.748;9.166;2022-09-21T15:49:39;16.20;43.50
23633;DHT22;11993;48.748;9.166;2022-09-21T15:52:17;16.10;44.40
23633;DHT22;11993;48.748;9.166;2022-09-21T15:54:55;16.00;44.40
23633;DHT22;11993;48.748;9.166;2022-09-21T15:57:34;16.10;44.20
23633;DHT22;11993;48.748;9.166;2022-09-21T16:00:05;16.20;44.50
23633;DHT22;11993;48.748;9.166;2022-09-21T16:02:37;16.10;44.30
23633;DHT22;11993;48.748;9.166;2022-09-21T16:05:05;16.00;43.70
23633;DHT22;11993;48.748;9.166;2022-09-21T16:07:34;15.90;43.90
23633;DHT22;11993;48.748;9.166;2022-09-21T16:10:01;15.90;44.20
23633;DHT22;11993;48.748;9.166;2022-09-21T16:12:37;15.80;44.60
23633;DHT22;11993;48.748;9.166;2022-09-21T16:17:53;15.60;44.70
23633;DHT22;11993;48.748;9.166;2022-09-21T16:20:20;15.60;44.60
23633;DHT22;11993;48.748;9.166;2022-09-21T16:22:49;15.40;44.90
23633;DHT22;11993;48.748;9.166;2022-09-21T16:25:27;15.60;45.40
23633;DHT22;11993;48.748;9.166;2022-09-21T16:27:57;15.20;45.20
23633;DHT22;11993;48.748;9.166;2022-09-21T16:30:50;15.20;45.20
23633;DHT22;11993;48.748;9.166;2022-09-21T16:33:36;15.20;45.30
23633;DHT22;11993;48.748;9.166;2022-09-21T16:38:56;15.10;45.70
23633;DHT22;11993;48.748;9.166;2022-09-21T16:41:25;15.10;45.50
23633;DHT22;11993;48.748;9.166;2022-09-21T16:43:56;15.10;45.90
23633;DHT22;11993;48.748;9.166;2022-09-21T16:46:22;15.20;46.00
23633;DHT22;11993;48.748;9.166;2022-09-21T16:48:50;15.20;46.20
23633;DHT22;11993;48.748;9.166;2022-09-21T16:51:18;15.20;46.30
23633;DHT22;11993;48.748;9.166;2022-09-21T16:53:46;15.10;46.20
23633;DHT22;11993;48.748;9.166;2022-09-21T16:56:13;15.10;46.50
23633;DHT22;11993;48.748;9.166;2022-09-21T16:58:43;15.00;47.00
23633;DHT22;11993;48.748;9.166;2022-09-21T17:01:11;14.90;47.20
23633;DHT22;11993;48.748;9.166;2022-09-21T17:03:38;14.80;47.10
23633;DHT22;11993;48.748;9.166;2022-09-21T17:06:14;14.80;47.40
23633;DHT22;11993;48.748;9.166;2022-09-21T17:08:41;14.80;47.90
23633;DHT22;11993;48.748;9.166;2022-09-21T17:11:07;14.60;48.20
23633;DHT22;11993;48.748;9.166;2022-09-21T17:13:32;14.60;48.10
23633;DHT22;11993;48.748;9.166;2022-09-21T17:15:58;14.50;48.30
23633;DHT22;11993;48.748;9.166;2022-09-21T17:18:24;14.60;48.80
23633;DHT22;11993;48.748;9.166;2022-09-21T17:20:49;14.50;48.40
23633;DHT22;11993;48.748;9.166;2022-09-21T17:23:15;14.40;48.90
23633;DHT22;11993;48.748;9.166;2022-09-21T17:25:41;14.40;48.70
23633;DHT22;11993;48.748;9.166;2022-09-21T17:28:20;14.30;48.90
23633;DHT22;11993;48.748;9.166;2022-09-21T17:30:50;14.20;49.50
23633;DHT22;11993;48.748;9.166;2022-09-21T17:33:16;14.20;49.60
23633;DHT22;11993;48.748;9.166;2022-09-21T17:35:44;14.10;49.90
23633;DHT22;11993;48.748;9.166;2022-09-21T17:38:10;14.20;49.80
23633;DHT22;11993;48.748;9.166;2022-09-21T17:40:36;14.10;50.10
23633;DHT22;11993;48.748;9.166;2022-09-21T17:43:18;14.10;50.60
23633;DHT22;11993;48.748;9.166;2022-09-21T17:45:56;14.20;50.50
23633;DHT22;11993;48.748;9.166;2022-09-21T17:48:24;14.30;50.40
23633;DHT22;11993;48.748;9.166;2022-09-21T17:50:50;14.30;50.50
23633;DHT22;11993;48.748;9.166;2022-09-21T17:53:16;14.30;50.60
23633;DHT22;11993;48.748;9.166;2022-09-21T17:56:37;14.20;50.70
23633;DHT22;11993;48.748;9.166;2022-09-21T17:59:07;14.30;51.00
23633;DHT22;11993;48.748;9.166;2022-09-21T18:01:38;14.30;51.30
23633;DHT22;11993;48.748;9.166;2022-09-21T18:04:05;14.20;51.50
23633;DHT22;11993;48.748;9.166;2022-09-21T18:06:32;14.20;51.70
23633;DHT22;11993;48.748;9.166;2022-09-21T18:08:59;14.10;51.60
23633;DHT22;11993;48.748;9.166;2022-09-21T18:14:31;14.00;51.90
23633;DHT22;11993;48.748;9.166;2022-09-21T18:22:29;13.90;52.10
23633;DHT22;11993;48.748;9.166;2022-09-21T18:24:58;14.00;52.30
23633;DHT22;11993;48.748;9.166;2022-09-21T18:27:25;14.10;52.30
23633;DHT22;11993;48.748;9.166;2022-09-21T18:29:51;14.10;52.20
23633;DHT22;11993;48.748;9.166;2022-09-21T18:37:59;13.80;52.70
23633;DHT22;11993;48.748;9.166;2022-09-21T18:40:43;13.60;52.60
23633;DHT22;11993;48.748;9.166;2022-09-21T18:46:18;13.40;53.50
23633;DHT22;11993;48.748;9.166;2022-09-21T18:51:57;13.30;53.60
23633;DHT22;11993;48.748;9.166;2022-09-21T18:54:27;13.30;53.50
23633;DHT22;11993;48.748;9.166;2022-09-21T18:56:53;13.40;53.70
23633;DHT22;11993;48.748;9.166;2022-09-21T18:59:20;13.30;53.60
23633;DHT22;11993;48.748;9.166;2022-09-21T19:01:46;13.20;53.80
23633;DHT22;11993;48.748;9.166;2022-09-21T19:04:13;13.20;54.30
23633;DHT22;11993;48.748;9.166;2022-09-21T19:06:55;13.10;54.10
23633;DHT22;11993;48.748;9.166;2022-09-21T19:15:00;13.00;54.20